createdAt,value
2018-12-30T00:00:23.246Z,100649.49
2018-12-30T00:01:29.155Z,100655.14
2018-12-30T00:02:35.119Z,100650.27
2018-12-30T00:03:41.098Z,100652.92
2018-12-30T00:04:47.046Z,100649.33
2018-12-30T00:05:52.997Z,100648.34
2018-12-30T00:06:58.947Z,100649.52
2018-12-30T00:08:04.882Z,100645.36
2018-12-30T00:09:10.867Z,100644.37
2018-12-30T00:10:16.943Z,100642.34
2018-12-30T00:11:22.875Z,100636.83
2018-12-30T00:12:28.837Z,100638.42
2018-12-30T00:13:34.780Z,100642.46
2018-12-30T00:14:40.728Z,100642.34
2018-12-30T00:15:46.684Z,100632.23
2018-12-30T00:16:52.614Z,100638.17
2018-12-30T00:17:58.566Z,100634.45
2018-12-30T00:19:04.532Z,100634.88
2018-12-30T00:20:10.501Z,100636.75
2018-12-30T00:21:16.448Z,100638.50
2018-12-30T00:22:22.399Z,100637.13
2018-12-30T00:23:28.304Z,100642.98
2018-12-30T00:24:34.309Z,100633.63
2018-12-30T00:25:40.309Z,100639.19
2018-12-30T00:26:46.345Z,100635.02
2018-12-30T00:27:52.273Z,100636.24
2018-12-30T00:28:58.305Z,100637.74
2018-12-30T00:30:03.537Z,100635.95
2018-12-30T00:31:09.479Z,100634.66
2018-12-30T00:32:15.360Z,100637.60
2018-12-30T00:33:21.275Z,100647.03
2018-12-30T00:34:27.228Z,100648.62
2018-12-30T00:35:33.213Z,100642.73
2018-12-30T00:36:39.381Z,100643.84
2018-12-30T00:37:45.696Z,100647.67
2018-12-30T00:38:51.680Z,100647.39
2018-12-30T00:39:57.669Z,100654.53
2018-12-30T00:41:03.833Z,100654.13
2018-12-30T00:42:09.794Z,100658.02
2018-12-30T00:43:15.736Z,100657.16
2018-12-30T00:44:21.643Z,100652.54
2018-12-30T00:45:27.586Z,100655.28
2018-12-30T00:46:33.510Z,100655.47
2018-12-30T00:47:39.483Z,100655.16
2018-12-30T00:48:45.423Z,100658.53
2018-12-30T00:49:51.388Z,100650.00
2018-12-30T00:50:57.357Z,100650.87
2018-12-30T00:52:03.304Z,100653.23
2018-12-30T00:53:09.220Z,100653.62
2018-12-30T00:54:15.109Z,100658.38
2018-12-30T00:55:21.084Z,100660.86
2018-12-30T00:56:27.009Z,100659.48
2018-12-30T00:57:32.938Z,100665.61
2018-12-30T00:58:38.901Z,100665.06
2018-12-30T00:59:44.845Z,100667.00
2018-12-30T01:00:50.805Z,100667.48
2018-12-30T01:01:56.829Z,100662.84
2018-12-30T01:03:02.716Z,100668.17
2018-12-30T01:04:08.437Z,100674.89
2018-12-30T01:05:14.053Z,100671.80
2018-12-30T01:06:19.998Z,100679.16
2018-12-30T01:07:25.996Z,100671.36
2018-12-30T01:08:31.960Z,100677.27
2018-12-30T01:09:37.844Z,100681.69
2018-12-30T01:10:43.813Z,100675.98
2018-12-30T01:11:49.726Z,100679.17
2018-12-30T01:12:55.635Z,100681.85
2018-12-30T01:14:01.595Z,100679.44
2018-12-30T01:15:07.544Z,100683.06
2018-12-30T01:16:13.690Z,100680.68
2018-12-30T01:17:19.649Z,100681.09
2018-12-30T01:18:25.801Z,100682.77
2018-12-30T01:19:31.765Z,100674.82
2018-12-30T01:20:37.739Z,100678.09
2018-12-30T01:21:43.712Z,100672.16
2018-12-30T01:22:49.524Z,100669.17
2018-12-30T01:23:55.446Z,100668.39
2018-12-30T01:25:01.607Z,100674.72
2018-12-30T01:26:07.545Z,100671.39
2018-12-30T01:27:13.456Z,100674.83
2018-12-30T01:28:19.388Z,100670.03
2018-12-30T01:29:25.289Z,100671.57
2018-12-30T01:30:31.223Z,100670.77
2018-12-30T01:31:37.125Z,100675.74
2018-12-30T01:32:43.045Z,100667.86
2018-12-30T01:33:48.984Z,100677.84
2018-12-30T01:34:54.950Z,100676.50
2018-12-30T01:36:00.938Z,100677.07
2018-12-30T01:37:06.909Z,100672.85
2018-12-30T01:38:12.840Z,100676.55
2018-12-30T01:39:18.767Z,100671.86
2018-12-30T01:40:24.691Z,100674.87
2018-12-30T01:41:30.633Z,100676.28
2018-12-30T01:42:36.551Z,100673.22
2018-12-30T01:43:42.470Z,100669.61
2018-12-30T01:44:48.404Z,100665.53
2018-12-30T01:45:54.382Z,100669.95
2018-12-30T01:47:00.336Z,100670.75
2018-12-30T01:48:06.228Z,100667.34
2018-12-30T01:49:12.193Z,100674.02
2018-12-30T01:50:18.120Z,100676.74
2018-12-30T01:51:23.757Z,100671.02
2018-12-30T01:52:29.678Z,100670.67
2018-12-30T01:53:35.611Z,100672.99
2018-12-30T01:54:41.519Z,100672.00
2018-12-30T01:55:48.275Z,100672.78
2018-12-30T01:56:54.173Z,100677.81
2018-12-30T01:58:00.086Z,100674.66
2018-12-30T01:59:05.980Z,100679.34
2018-12-30T02:00:11.533Z,100678.52
2018-12-30T02:01:17.478Z,100677.25
2018-12-30T02:02:22.888Z,100681.41
2018-12-30T02:03:28.882Z,100682.03
2018-12-30T02:04:34.801Z,100681.86
2018-12-30T02:05:40.752Z,100680.42
2018-12-30T02:06:46.371Z,100683.83
2018-12-30T02:07:52.264Z,100680.71
2018-12-30T02:08:58.194Z,100683.52
2018-12-30T02:10:03.448Z,100689.11
2018-12-30T02:11:09.431Z,100688.68
2018-12-30T02:12:15.428Z,100694.73
2018-12-30T02:13:21.347Z,100691.26
2018-12-30T02:14:27.278Z,100683.61
2018-12-30T02:15:33.267Z,100686.59
2018-12-30T02:16:39.197Z,100688.30
2018-12-30T02:17:45.181Z,100685.01
2018-12-30T02:18:51.110Z,100684.23
2018-12-30T02:19:57.080Z,100688.34
2018-12-30T02:21:03.038Z,100680.52
2018-12-30T02:22:08.950Z,100686.86
2018-12-30T02:23:14.883Z,100680.22
2018-12-30T02:24:20.465Z,100687.89
2018-12-30T02:25:26.390Z,100683.81
2018-12-30T02:26:32.339Z,100685.66
2018-12-30T02:27:38.312Z,100680.59
2018-12-30T02:28:44.288Z,100688.95
2018-12-30T02:29:50.217Z,100688.84
2018-12-30T02:30:56.233Z,100686.32
2018-12-30T02:32:02.127Z,100684.42
2018-12-30T02:33:08.065Z,100686.52
2018-12-30T02:34:14.005Z,100680.17
2018-12-30T02:35:19.949Z,100690.63
2018-12-30T02:36:25.927Z,100693.39
2018-12-30T02:37:31.889Z,100695.05
2018-12-30T02:38:37.823Z,100687.13
2018-12-30T02:39:43.757Z,100686.95
2018-12-30T02:40:49.764Z,100684.26
2018-12-30T02:41:55.709Z,100685.14
2018-12-30T02:43:01.298Z,100689.36
2018-12-30T02:44:07.278Z,100690.32
2018-12-30T02:45:13.247Z,100688.44
2018-12-30T02:46:19.185Z,100689.66
2018-12-30T02:47:25.114Z,100693.14
2018-12-30T02:48:31.070Z,100691.13
2018-12-30T02:49:37.027Z,100689.28
2018-12-30T02:50:42.913Z,100695.82
2018-12-30T02:51:50.425Z,100688.95
2018-12-30T02:52:54.857Z,100695.22
2018-12-30T02:54:00.819Z,100697.30
2018-12-30T02:55:06.389Z,100693.65
2018-12-30T02:56:12.013Z,100683.14
2018-12-30T02:57:17.992Z,100683.45
2018-12-30T02:58:23.977Z,100688.73
2018-12-30T02:59:29.921Z,100692.74
2018-12-30T03:00:35.868Z,100694.61
2018-12-30T03:01:41.833Z,100692.77
2018-12-30T03:02:49.439Z,100689.35
2018-12-30T03:03:55.366Z,100689.62
2018-12-30T03:05:01.327Z,100695.72
2018-12-30T03:06:07.211Z,100699.88
2018-12-30T03:07:13.140Z,100698.37
2018-12-30T03:08:19.058Z,100698.80
2018-12-30T03:09:24.961Z,100690.60
2018-12-30T03:10:31.022Z,100688.16
2018-12-30T03:11:37.061Z,100702.08
2018-12-30T03:12:43.690Z,100694.05
2018-12-30T03:13:49.642Z,100698.17
2018-12-30T03:14:55.548Z,100701.76
2018-12-30T03:16:01.432Z,100701.78
2018-12-30T03:17:07.404Z,100698.72
2018-12-30T03:18:13.303Z,100696.25
2018-12-30T03:19:19.209Z,100699.36
2018-12-30T03:20:25.125Z,100701.70
2018-12-30T03:21:31.038Z,100701.69
2018-12-30T03:22:36.987Z,100702.31
2018-12-30T03:23:42.940Z,100703.27
2018-12-30T03:24:48.817Z,100707.63
2018-12-30T03:25:54.715Z,100706.34
2018-12-30T03:27:00.678Z,100703.88
2018-12-30T03:28:07.213Z,100703.73
2018-12-30T03:29:12.568Z,100699.36
2018-12-30T03:30:18.467Z,100710.16
2018-12-30T03:31:24.396Z,100711.52
2018-12-30T03:32:30.368Z,100713.12
2018-12-30T03:33:36.292Z,100721.50
2018-12-30T03:34:42.230Z,100717.08
2018-12-30T03:35:48.158Z,100721.61
2018-12-30T03:36:54.082Z,100719.27
2018-12-30T03:38:00.036Z,100733.02
2018-12-30T03:39:05.293Z,100716.81
2018-12-30T03:40:11.273Z,100721.20
2018-12-30T03:41:17.220Z,100729.70
2018-12-30T03:42:23.129Z,100720.72
2018-12-30T03:43:29.100Z,100723.16
2018-12-30T03:44:35.004Z,100723.27
2018-12-30T03:45:40.945Z,100739.03
2018-12-30T03:46:46.885Z,100740.48
2018-12-30T03:47:52.813Z,100739.77
2018-12-30T03:48:58.712Z,100734.20
2018-12-30T03:50:04.320Z,100741.02
2018-12-30T03:51:10.291Z,100747.73
2018-12-30T03:52:16.264Z,100750.59
2018-12-30T03:53:22.237Z,100733.33
2018-12-30T03:54:28.157Z,100763.66
2018-12-30T03:55:34.093Z,100770.00
2018-12-30T03:56:40.051Z,100752.69
2018-12-30T03:57:46.058Z,100767.50
2018-12-30T03:58:52.062Z,100773.94
2018-12-30T03:59:58.019Z,100780.19
2018-12-30T04:01:05.129Z,100771.39
2018-12-30T04:02:11.082Z,100801.54
2018-12-30T04:03:16.990Z,100789.52
2018-12-30T04:04:23.029Z,100788.78
2018-12-30T04:05:28.597Z,100791.41
2018-12-30T04:06:34.595Z,100797.83
2018-12-30T04:07:40.581Z,100799.56
2018-12-30T04:08:46.620Z,100811.41
2018-12-30T04:09:52.597Z,100814.87
2018-12-30T04:10:58.611Z,100806.14
2018-12-30T04:12:04.587Z,100809.78
2018-12-30T04:13:10.605Z,100808.62
2018-12-30T04:14:16.551Z,100822.98
2018-12-30T04:15:23.363Z,100824.73
2018-12-30T04:16:29.367Z,100805.80
2018-12-30T04:17:35.330Z,100820.28
2018-12-30T04:18:41.367Z,100810.08
2018-12-30T04:19:47.574Z,100820.96
2018-12-30T04:20:54.564Z,100820.52
2018-12-30T04:22:00.940Z,100830.45
2018-12-30T04:23:06.954Z,100823.26
2018-12-30T04:24:12.917Z,100821.97
2018-12-30T04:25:18.557Z,100831.03
2018-12-30T04:26:24.549Z,100836.81
2018-12-30T04:27:31.471Z,100843.05
2018-12-30T04:28:37.471Z,100837.48
2018-12-30T04:29:43.394Z,100840.14
2018-12-30T04:30:49.368Z,100843.80
2018-12-30T04:31:55.415Z,100840.24
2018-12-30T04:33:01.861Z,100858.27
2018-12-30T04:34:07.875Z,100858.72
2018-12-30T04:35:13.950Z,100854.16
2018-12-30T04:36:19.920Z,100861.23
2018-12-30T04:37:26.315Z,100869.00
2018-12-30T04:38:32.349Z,100870.67
2018-12-30T04:39:38.309Z,100862.02
2018-12-30T04:40:44.312Z,100867.61
2018-12-30T04:41:50.357Z,100861.20
2018-12-30T04:42:56.292Z,100875.11
2018-12-30T04:44:02.283Z,100874.13
2018-12-30T04:45:08.185Z,100870.84
2018-12-30T04:46:14.110Z,100869.23
2018-12-30T04:47:20.059Z,100871.85
2018-12-30T04:48:26.001Z,100874.94
2018-12-30T04:49:31.973Z,100867.31
2018-12-30T04:50:39.891Z,100876.40
2018-12-30T04:51:43.945Z,100874.84
2018-12-30T04:52:49.890Z,100887.63
2018-12-30T04:53:55.567Z,100872.83
2018-12-30T04:55:01.497Z,100874.00
2018-12-30T04:56:07.440Z,100897.12
2018-12-30T04:57:13.388Z,100886.61
2018-12-30T04:58:19.484Z,100888.42
2018-12-30T04:59:25.461Z,100889.96
2018-12-30T05:00:32.163Z,100900.84
2018-12-30T05:01:38.650Z,100897.84
2018-12-30T05:02:47.401Z,100912.63
2018-12-30T05:03:54.111Z,100902.50
2018-12-30T05:05:00.186Z,100907.73
2018-12-30T05:06:06.751Z,100905.24
2018-12-30T05:07:13.360Z,100924.36
2018-12-30T05:08:19.358Z,100919.07
2018-12-30T05:09:25.488Z,100924.72
2018-12-30T05:10:31.450Z,100917.95
2018-12-30T05:11:37.879Z,100900.64
2018-12-30T05:12:45.102Z,100929.64
2018-12-30T05:13:51.459Z,100916.10
2018-12-30T05:14:57.488Z,100926.55
2018-12-30T05:16:03.571Z,100928.59
2018-12-30T05:17:09.504Z,100928.56
2018-12-30T05:18:15.932Z,100930.00
2018-12-30T05:19:21.905Z,100933.16
2018-12-30T05:20:27.879Z,100932.81
2018-12-30T05:21:34.253Z,100939.43
2018-12-30T05:22:40.529Z,100942.53
2018-12-30T05:23:46.904Z,100935.91
2018-12-30T05:24:53.311Z,100951.05
2018-12-30T05:25:59.322Z,100948.51
2018-12-30T05:27:05.250Z,100958.45
2018-12-30T05:28:11.287Z,100944.89
2018-12-30T05:29:17.354Z,100969.69
2018-12-30T05:30:24.400Z,100947.87
2018-12-30T05:31:30.482Z,100961.86
2018-12-30T05:32:36.445Z,100969.23
2018-12-30T05:33:43.149Z,100960.30
2018-12-30T05:34:49.057Z,100958.11
2018-12-30T05:35:55.129Z,100975.63
2018-12-30T05:37:01.061Z,100968.55
2018-12-30T05:38:07.739Z,100967.62
2018-12-30T05:39:13.968Z,100973.02
2018-12-30T05:40:19.928Z,100977.92
2018-12-30T05:41:26.361Z,100980.48
2018-12-30T05:42:32.320Z,100995.13
2018-12-30T05:43:40.096Z,100987.02
2018-12-30T05:44:47.013Z,101007.87
2018-12-30T05:45:52.864Z,100996.87
2018-12-30T05:46:58.451Z,101001.34
2018-12-30T05:48:04.399Z,100996.13
2018-12-30T05:49:10.393Z,101001.65
2018-12-30T05:50:16.321Z,100988.75
2018-12-30T05:51:22.284Z,101006.56
2018-12-30T05:52:28.234Z,101010.78
2018-12-30T05:53:34.154Z,100996.69
2018-12-30T05:54:40.105Z,101013.94
2018-12-30T05:55:46.010Z,101030.09
2018-12-30T05:56:51.926Z,101032.70
2018-12-30T05:57:57.877Z,101011.47
2018-12-30T05:59:03.842Z,101024.56
2018-12-30T06:00:09.396Z,101042.31
2018-12-30T06:01:15.351Z,101016.02
2018-12-30T06:02:21.344Z,101029.42
2018-12-30T06:03:27.325Z,101020.11
2018-12-30T06:04:33.297Z,101019.47
2018-12-30T06:05:39.267Z,101026.69
2018-12-30T06:06:45.262Z,101048.22
2018-12-30T06:07:51.208Z,101039.54
2018-12-30T06:08:57.175Z,101040.35
2018-12-30T06:10:03.135Z,101045.06
2018-12-30T06:11:09.062Z,101036.05
2018-12-30T06:12:14.974Z,101059.58
2018-12-30T06:13:20.894Z,101049.22
2018-12-30T06:14:26.908Z,101050.83
2018-12-30T06:15:32.886Z,101056.44
2018-12-30T06:16:38.915Z,101063.45
2018-12-30T06:17:44.901Z,101057.00
2018-12-30T06:18:50.926Z,101066.00
2018-12-30T06:19:56.950Z,101065.20
2018-12-30T06:21:02.895Z,101069.91
2018-12-30T06:22:08.851Z,101073.17
2018-12-30T06:23:14.814Z,101080.19
2018-12-30T06:24:20.747Z,101082.58
2018-12-30T06:25:26.635Z,101075.62
2018-12-30T06:26:32.563Z,101083.14
2018-12-30T06:27:38.690Z,101085.23
2018-12-30T06:28:45.340Z,101094.69
2018-12-30T06:29:51.370Z,101091.71
2018-12-30T06:30:57.118Z,101100.14
2018-12-30T06:32:03.248Z,101097.78
2018-12-30T06:33:09.613Z,101112.09
2018-12-30T06:34:15.686Z,101114.30
2018-12-30T06:35:21.601Z,101115.56
2018-12-30T06:36:27.516Z,101106.86
2018-12-30T06:37:33.432Z,101112.13
2018-12-30T06:38:41.435Z,101132.88
2018-12-30T06:39:48.533Z,101125.44
2018-12-30T06:40:55.474Z,101127.19
2018-12-30T06:42:02.383Z,101120.38
2018-12-30T06:43:09.290Z,101131.54
2018-12-30T06:44:16.711Z,101140.33
2018-12-30T06:45:24.212Z,101128.20
2018-12-30T06:46:31.296Z,101138.05
2018-12-30T06:47:40.039Z,101147.67
2018-12-30T06:48:47.913Z,101139.13
2018-12-30T06:49:55.196Z,101143.75
2018-12-30T06:51:01.689Z,101159.39
2018-12-30T06:52:09.006Z,101159.30
2018-12-30T06:53:16.560Z,101157.81
2018-12-30T06:54:23.553Z,101157.48
2018-12-30T06:55:31.132Z,101151.82
2018-12-30T06:56:38.045Z,101166.59
2018-12-30T06:57:45.015Z,101160.31
2018-12-30T06:58:52.186Z,101160.31
2018-12-30T06:59:59.096Z,101169.25
2018-12-30T07:01:06.064Z,101171.80
2018-12-30T07:02:14.855Z,101165.48
2018-12-30T07:03:22.375Z,101172.83
2018-12-30T07:04:28.777Z,101171.30
2018-12-30T07:05:35.579Z,101174.35
2018-12-30T07:06:43.036Z,101190.72
2018-12-30T07:07:50.163Z,101187.69
2018-12-30T07:08:57.524Z,101176.13
2018-12-30T07:10:04.351Z,101188.25
2018-12-30T07:11:11.546Z,101199.09
2018-12-30T07:12:19.964Z,101192.06
2018-12-30T07:13:27.040Z,101192.45
2018-12-30T07:14:34.107Z,101192.94
2018-12-30T07:15:42.635Z,101194.33
2018-12-30T07:16:49.175Z,101199.84
2018-12-30T07:17:55.568Z,101196.23
2018-12-30T07:19:02.851Z,101197.58
2018-12-30T07:20:11.466Z,101213.42
2018-12-30T07:21:18.545Z,101210.39
2018-12-30T07:22:25.509Z,101216.30
2018-12-30T07:23:33.970Z,101224.69
2018-12-30T07:24:41.379Z,101218.17
2018-12-30T07:25:50.268Z,101218.21
2018-12-30T07:26:57.189Z,101218.59
2018-12-30T07:28:04.059Z,101224.17
2018-12-30T07:29:11.993Z,101226.81
2018-12-30T07:30:19.040Z,101221.08
2018-12-30T07:31:26.627Z,101220.13
2018-12-30T07:32:32.580Z,101233.67
2018-12-30T07:33:38.505Z,101229.38
2018-12-30T07:34:44.416Z,101235.81
2018-12-30T07:35:50.417Z,101230.76
2018-12-30T07:36:56.339Z,101231.67
2018-12-30T07:38:02.292Z,101232.06
2018-12-30T07:39:08.257Z,101243.28
2018-12-30T07:40:14.246Z,101232.46
2018-12-30T07:41:20.157Z,101246.00
2018-12-30T07:42:26.076Z,101245.09
2018-12-30T07:43:31.985Z,101245.02
2018-12-30T07:44:37.941Z,101250.89
2018-12-30T07:45:43.917Z,101246.89
2018-12-30T07:46:50.726Z,101254.36
2018-12-30T07:47:57.297Z,101254.44
2018-12-30T07:49:03.925Z,101257.17
2018-12-30T07:50:11.150Z,101258.83
2018-12-30T07:51:18.112Z,101267.13
2018-12-30T07:52:24.484Z,101273.20
2018-12-30T07:53:30.507Z,101271.91
2018-12-30T07:54:36.409Z,101264.20
2018-12-30T07:55:42.310Z,101276.72
2018-12-30T07:56:48.220Z,101274.86
2018-12-30T07:57:54.138Z,101271.47
2018-12-30T07:59:00.044Z,101283.55
2018-12-30T08:00:05.030Z,101277.38
2018-12-30T08:01:10.991Z,101287.34
2018-12-30T08:02:16.883Z,101287.77
2018-12-30T08:03:22.789Z,101287.46
2018-12-30T08:04:28.674Z,101293.98
2018-12-30T08:05:34.669Z,101299.50
2018-12-30T08:06:40.552Z,101302.50
2018-12-30T08:07:46.469Z,101294.80
2018-12-30T08:08:52.450Z,101302.70
2018-12-30T08:09:58.437Z,101297.41
2018-12-30T08:11:03.957Z,101304.80
2018-12-30T08:12:09.869Z,101307.87
2018-12-30T08:13:15.776Z,101309.94
2018-12-30T08:14:21.840Z,101304.13
2018-12-30T08:15:27.784Z,101308.67
2018-12-30T08:16:33.686Z,101310.02
2018-12-30T08:17:39.608Z,101307.41
2018-12-30T08:18:45.500Z,101311.50
2018-12-30T08:19:51.117Z,101308.16
2018-12-30T08:20:57.070Z,101316.02
2018-12-30T08:22:03.050Z,101308.42
2018-12-30T08:23:08.938Z,101315.84
2018-12-30T08:24:14.901Z,101317.94
2018-12-30T08:25:20.772Z,101315.33
2018-12-30T08:26:26.745Z,101318.86
2018-12-30T08:27:32.617Z,101324.38
2018-12-30T08:28:38.525Z,101325.37
2018-12-30T08:29:45.252Z,101324.98
2018-12-30T08:30:51.184Z,101337.97
2018-12-30T08:31:57.109Z,101323.67
2018-12-30T08:33:03.027Z,101328.49
2018-12-30T08:34:08.953Z,101328.97
2018-12-30T08:35:14.819Z,101333.91
2018-12-30T08:36:20.720Z,101326.05
2018-12-30T08:37:26.607Z,101334.70
2018-12-30T08:38:32.508Z,101344.93
2018-12-30T08:39:39.938Z,101341.80
2018-12-30T08:40:44.362Z,101338.41
2018-12-30T08:41:50.359Z,101339.75
2018-12-30T08:42:56.268Z,101348.36
2018-12-30T08:44:01.948Z,101343.27
2018-12-30T08:45:07.535Z,101351.92
2018-12-30T08:46:13.513Z,101354.84
2018-12-30T08:47:19.445Z,101351.23
2018-12-30T08:48:25.411Z,101351.63
2018-12-30T08:49:31.345Z,101351.20
2018-12-30T08:50:37.321Z,101352.27
2018-12-30T08:51:43.268Z,101354.84
2018-12-30T08:52:49.205Z,101357.72
2018-12-30T08:53:55.137Z,101360.15
2018-12-30T08:55:01.051Z,101358.02
2018-12-30T08:56:06.989Z,101357.28
2018-12-30T08:57:12.983Z,101355.67
2018-12-30T08:58:18.932Z,101369.33
2018-12-30T08:59:24.887Z,101367.31
2018-12-30T09:00:30.844Z,101359.32
2018-12-30T09:01:36.737Z,101369.97
2018-12-30T09:02:42.681Z,101373.93
2018-12-30T09:03:48.620Z,101376.36
2018-12-30T09:04:54.605Z,101369.84
2018-12-30T09:06:00.559Z,101362.76
2018-12-30T09:07:06.476Z,101372.63
2018-12-30T09:08:12.584Z,101372.67
2018-12-30T09:09:18.493Z,101374.50
2018-12-30T09:10:24.467Z,101371.80
2018-12-30T09:11:30.395Z,101383.20
2018-12-30T09:12:35.978Z,101380.55
2018-12-30T09:13:41.877Z,101379.28
2018-12-30T09:14:47.832Z,101380.23
2018-12-30T09:15:53.760Z,101383.72
2018-12-30T09:16:59.701Z,101386.11
2018-12-30T09:18:05.643Z,101382.77
2018-12-30T09:19:11.604Z,101382.80
2018-12-30T09:20:17.510Z,101398.33
2018-12-30T09:21:23.510Z,101389.41
2018-12-30T09:22:29.469Z,101393.80
2018-12-30T09:23:37.516Z,101398.15
2018-12-30T09:24:41.346Z,101400.20
2018-12-30T09:25:47.317Z,101391.39
2018-12-30T09:26:53.287Z,101407.20
2018-12-30T09:27:59.244Z,101397.72
2018-12-30T09:29:05.184Z,101393.02
2018-12-30T09:30:11.197Z,101407.81
2018-12-30T09:31:17.207Z,101401.33
2018-12-30T09:32:23.173Z,101399.54
2018-12-30T09:33:29.088Z,101396.41
2018-12-30T09:34:35.017Z,101405.59
2018-12-30T09:35:40.964Z,101409.94
2018-12-30T09:36:46.975Z,101407.25
2018-12-30T09:37:52.917Z,101408.84
2018-12-30T09:38:59.063Z,101411.55
2018-12-30T09:40:04.502Z,101417.64
2018-12-30T09:41:10.445Z,101412.81
2018-12-30T09:42:16.437Z,101411.59
2018-12-30T09:43:22.337Z,101407.16
2018-12-30T09:44:28.239Z,101416.81
2018-12-30T09:45:34.118Z,101419.67
2018-12-30T09:46:40.096Z,101412.76
2018-12-30T09:47:46.076Z,101413.97
2018-12-30T09:48:52.031Z,101412.33
2018-12-30T09:49:58.113Z,101414.41
2018-12-30T09:51:04.180Z,101419.38
2018-12-30T09:52:10.169Z,101406.03
2018-12-30T09:53:16.118Z,101409.91
2018-12-30T09:54:22.097Z,101417.75
2018-12-30T09:55:28.058Z,101413.77
2018-12-30T09:56:34.063Z,101426.30
2018-12-30T09:57:40.003Z,101417.27
2018-12-30T09:58:45.657Z,101421.61
2018-12-30T09:59:51.619Z,101418.13
2018-12-30T10:00:57.561Z,101419.09
2018-12-30T10:02:03.550Z,101430.80
2018-12-30T10:03:09.444Z,101416.67
2018-12-30T10:04:15.360Z,101418.13
2018-12-30T10:05:21.271Z,101416.20
2018-12-30T10:06:27.207Z,101418.64
2018-12-30T10:07:33.209Z,101416.68
2018-12-30T10:08:39.176Z,101415.08
2018-12-30T10:09:45.093Z,101411.50
2018-12-30T10:10:51.128Z,101426.41
2018-12-30T10:11:57.113Z,101410.73
2018-12-30T10:13:03.028Z,101428.62
2018-12-30T10:14:08.971Z,101424.84
2018-12-30T10:15:14.853Z,101424.95
2018-12-30T10:16:20.765Z,101424.90
2018-12-30T10:17:26.738Z,101423.16
2018-12-30T10:18:32.693Z,101424.45
2018-12-30T10:19:38.634Z,101426.48
2018-12-30T10:20:44.519Z,101420.55
2018-12-30T10:21:50.760Z,101432.39
2018-12-30T10:22:58.874Z,101427.06
2018-12-30T10:24:02.767Z,101425.34
2018-12-30T10:25:08.653Z,101428.72
2018-12-30T10:26:14.569Z,101438.19
2018-12-30T10:27:20.514Z,101442.53
2018-12-30T10:28:26.442Z,101436.87
2018-12-30T10:29:32.352Z,101437.81
2018-12-30T10:30:38.310Z,101440.23
2018-12-30T10:31:44.256Z,101443.95
2018-12-30T10:32:50.247Z,101434.75
2018-12-30T10:33:56.176Z,101445.02
2018-12-30T10:35:02.179Z,101445.41
2018-12-30T10:36:08.058Z,101447.97
2018-12-30T10:37:14.172Z,101450.00
2018-12-30T10:38:20.075Z,101443.27
2018-12-30T10:39:25.994Z,101442.25
2018-12-30T10:40:31.871Z,101435.72
2018-12-30T10:41:37.785Z,101438.68
2018-12-30T10:42:43.754Z,101442.59
2018-12-30T10:43:49.727Z,101441.53
2018-12-30T10:44:55.633Z,101438.88
2018-12-30T10:46:01.554Z,101437.86
2018-12-30T10:47:07.506Z,101435.83
2018-12-30T10:48:13.464Z,101441.53
2018-12-30T10:49:19.417Z,101443.81
2018-12-30T10:50:25.366Z,101433.36
2018-12-30T10:51:31.336Z,101435.63
2018-12-30T10:52:37.314Z,101442.02
2018-12-30T10:53:43.256Z,101446.80
2018-12-30T10:54:49.180Z,101440.23
2018-12-30T10:55:55.088Z,101451.73
2018-12-30T10:57:01.336Z,101442.69
2018-12-30T10:58:07.257Z,101439.78
2018-12-30T10:59:13.207Z,101445.35
2018-12-30T11:00:18.561Z,101445.88
2018-12-30T11:01:24.499Z,101444.38
2018-12-30T11:02:31.275Z,101435.77
2018-12-30T11:03:37.292Z,101429.78
2018-12-30T11:04:43.195Z,101435.87
2018-12-30T11:05:49.086Z,101436.08
2018-12-30T11:06:55.003Z,101431.57
2018-12-30T11:08:06.450Z,101440.66
2018-12-30T11:09:12.409Z,101440.52
2018-12-30T11:10:18.309Z,101439.69
2018-12-30T11:11:24.181Z,101441.92
2018-12-30T11:12:30.082Z,101435.09
2018-12-30T11:13:35.984Z,101440.70
2018-12-30T11:14:41.917Z,101432.00
2018-12-30T11:15:47.828Z,101433.70
2018-12-30T11:16:53.701Z,101446.41
2018-12-30T11:17:59.624Z,101444.42
2018-12-30T11:19:05.165Z,101447.20
2018-12-30T11:20:10.828Z,101442.02
2018-12-30T11:21:16.143Z,101450.83
2018-12-30T11:22:22.157Z,101448.06
2018-12-30T11:23:28.036Z,101432.20
2018-12-30T11:24:34.014Z,101436.70
2018-12-30T11:25:40.858Z,101433.45
2018-12-30T11:26:48.043Z,101422.91
2018-12-30T11:27:54.060Z,101433.61
2018-12-30T11:28:59.978Z,101432.09
2018-12-30T11:30:05.229Z,101429.91
2018-12-30T11:31:11.205Z,101421.53
2018-12-30T11:32:16.428Z,101431.02
2018-12-30T11:33:22.418Z,101434.16
2018-12-30T11:34:28.345Z,101437.20
2018-12-30T11:35:34.265Z,101441.80
2018-12-30T11:36:40.172Z,101429.37
2018-12-30T11:37:46.134Z,101420.96
2018-12-30T11:38:52.094Z,101428.49
2018-12-30T11:39:58.734Z,101429.64
2018-12-30T11:41:05.135Z,101430.61
2018-12-30T11:42:11.094Z,101435.47
2018-12-30T11:43:17.028Z,101429.13
2018-12-30T11:44:22.958Z,101434.29
2018-12-30T11:45:29.577Z,101423.27
2018-12-30T11:46:35.572Z,101426.27
2018-12-30T11:47:41.562Z,101413.23
2018-12-30T11:48:47.462Z,101421.89
2018-12-30T11:49:54.105Z,101418.97
2018-12-30T11:50:59.996Z,101419.35
2018-12-30T11:52:05.914Z,101427.95
2018-12-30T11:53:11.898Z,101428.45
2018-12-30T11:54:17.833Z,101428.02
2018-12-30T11:55:23.766Z,101428.34
2018-12-30T11:56:29.735Z,101432.84
2018-12-30T11:57:35.661Z,101438.25
2018-12-30T11:58:41.595Z,101436.99
2018-12-30T11:59:48.207Z,101442.65
2018-12-30T12:00:54.523Z,101437.44
2018-12-30T12:02:00.421Z,101437.98
2018-12-30T12:03:06.388Z,101441.73
2018-12-30T12:04:12.989Z,101445.98
2018-12-30T12:05:18.910Z,101448.10
2018-12-30T12:06:24.844Z,101448.09
2018-12-30T12:07:30.754Z,101448.00
2018-12-30T12:08:37.078Z,101453.80
2018-12-30T12:09:43.607Z,101447.70
2018-12-30T12:10:49.533Z,101451.26
2018-12-30T12:11:55.436Z,101446.02
2018-12-30T12:13:01.369Z,101456.66
2018-12-30T12:14:07.697Z,101448.86
2018-12-30T12:15:13.779Z,101445.43
2018-12-30T12:16:19.697Z,101444.17
2018-12-30T12:17:25.647Z,101444.13
2018-12-30T12:18:31.697Z,101443.47
2018-12-30T12:19:38.136Z,101450.02
2018-12-30T12:20:44.018Z,101437.33
2018-12-30T12:21:49.606Z,101445.06
2018-12-30T12:22:56.347Z,101446.30
2018-12-30T12:24:02.416Z,101447.84
2018-12-30T12:25:08.008Z,101463.56
2018-12-30T12:26:13.933Z,101466.52
2018-12-30T12:27:19.906Z,101457.91
2018-12-30T12:28:25.918Z,101468.63
2018-12-30T12:29:31.885Z,101461.23
2018-12-30T12:30:37.876Z,101461.61
2018-12-30T12:31:43.839Z,101463.08
2018-12-30T12:32:50.352Z,101457.47
2018-12-30T12:33:56.311Z,101454.42